createdAt,value
2019-04-10T00:00:35.145Z,1007.8
2019-04-10T00:01:36.402Z,1008.0
2019-04-10T00:02:37.921Z,1007.9
2019-04-10T00:03:41.762Z,1007.9
2019-04-10T00:04:40.803Z,1007.9
2019-04-10T00:05:42.558Z,1007.9
2019-04-10T00:06:43.838Z,1008.0
2019-04-10T00:07:45.817Z,1008.0
2019-04-10T00:08:46.428Z,1008.0
2019-04-10T00:09:48.013Z,1007.9
2019-04-10T00:10:49.408Z,1007.9
2019-04-10T00:11:53.426Z,1008.0
2019-04-10T00:12:54.090Z,1008.0
2019-04-10T00:13:55.398Z,1008.0
2019-04-10T00:14:56.813Z,1008.0
2019-04-10T00:15:59.024Z,1008.0
2019-04-10T00:17:00.503Z,1008.0
2019-04-10T00:18:01.862Z,1008.0
2019-04-10T00:19:02.531Z,1008.1
2019-04-10T00:20:04.330Z,1008.1
2019-04-10T00:21:05.414Z,1008.1
2019-04-10T00:22:06.935Z,1008.1
2019-04-10T00:23:08.919Z,1008.0
2019-04-10T00:24:09.819Z,1008.0
2019-04-10T00:25:11.212Z,1008.0
2019-04-10T00:26:13.188Z,1008.1
2019-04-10T00:27:14.550Z,1008.1
2019-04-10T00:28:15.786Z,1008.1
2019-04-10T00:29:18.189Z,1008.1
2019-04-10T00:30:18.705Z,1008.1
2019-04-10T00:31:20.133Z,1008.1
2019-04-10T00:32:21.750Z,1008.1
2019-04-10T00:33:23.147Z,1008.1
2019-04-10T00:34:25.409Z,1008.1
2019-04-10T00:35:26.072Z,1008.1
2019-04-10T00:36:27.474Z,1008.1
2019-04-10T00:37:30.259Z,1008.1
2019-04-10T00:38:30.395Z,1008.1
2019-04-10T00:39:32.754Z,1008.0
2019-04-10T00:40:33.234Z,1008.1
2019-04-10T00:41:34.716Z,1008.0
2019-04-10T00:42:36.984Z,1008.0
2019-04-10T00:43:39.949Z,1008.1
2019-04-10T00:44:39.977Z,1008.0
2019-04-10T00:45:41.834Z,1008.1
2019-04-10T00:46:42.858Z,1008.1
2019-04-10T00:47:45.485Z,1008.1
2019-04-10T00:48:45.743Z,1008.1
2019-04-10T00:49:48.156Z,1008.1
2019-04-10T00:50:48.772Z,1008.0
2019-04-10T00:51:50.065Z,1008.0
2019-04-10T00:52:52.534Z,1008.0
2019-04-10T00:53:53.873Z,1008.1
2019-04-10T00:54:55.362Z,1008.1
2019-04-10T00:55:56.373Z,1008.1
2019-04-10T00:56:57.345Z,1008.2
2019-04-10T00:57:58.738Z,1008.1
2019-04-10T00:59:00.135Z,1008.1
2019-04-10T01:00:01.668Z,1008.1
2019-04-10T01:01:03.436Z,1008.1
2019-04-10T01:02:04.625Z,1008.1
2019-04-10T01:03:05.904Z,1008.1
2019-04-10T01:04:08.462Z,1008.1
2019-04-10T01:05:10.998Z,1008.1
2019-04-10T01:06:11.497Z,1008.1
2019-04-10T01:07:12.790Z,1008.1
2019-04-10T01:08:14.426Z,1008.2
2019-04-10T01:09:15.819Z,1008.1
2019-04-10T01:10:17.850Z,1008.2
2019-04-10T01:11:18.996Z,1008.2
2019-04-10T01:12:21.529Z,1008.2
2019-04-10T01:13:22.931Z,1008.2
2019-04-10T01:14:23.392Z,1008.1
2019-04-10T01:15:24.667Z,1008.1
2019-04-10T01:16:27.078Z,1008.1
2019-04-10T01:17:28.437Z,1008.2
2019-04-10T01:18:29.096Z,1008.2
2019-04-10T01:19:30.492Z,1008.1
2019-04-10T01:20:32.124Z,1008.1
2019-04-10T01:21:34.581Z,1008.1
2019-04-10T01:22:35.044Z,1008.2
2019-04-10T01:23:37.924Z,1008.2
2019-04-10T01:24:37.731Z,1008.2
2019-04-10T01:25:39.317Z,1008.1
2019-04-10T01:26:40.707Z,1008.2
2019-04-10T01:27:42.500Z,1008.2
2019-04-10T01:28:44.942Z,1008.1
2019-04-10T01:29:46.090Z,1008.2
2019-04-10T01:30:46.639Z,1008.1
2019-04-10T01:31:48.037Z,1008.1
2019-04-10T01:32:50.164Z,1008.2
2019-04-10T01:33:50.966Z,1008.2
2019-04-10T01:34:52.363Z,1008.2
2019-04-10T01:35:54.321Z,1008.1
2019-04-10T01:36:56.408Z,1008.2
2019-04-10T01:38:00.839Z,1008.2
2019-04-10T01:38:58.249Z,1008.2
2019-04-10T01:39:59.640Z,1008.2
2019-04-10T01:41:01.542Z,1008.2
2019-04-10T01:42:02.566Z,1008.1
2019-04-10T01:43:09.695Z,1008.2
2019-04-10T01:44:05.674Z,1008.2
2019-04-10T01:45:06.907Z,1008.2
2019-04-10T01:46:08.387Z,1008.2
2019-04-10T01:47:10.824Z,1008.2
2019-04-10T01:48:12.087Z,1008.2
2019-04-10T01:49:13.490Z,1008.2
2019-04-10T01:50:14.520Z,1008.2
2019-04-10T01:51:15.370Z,1008.2
2019-04-10T01:52:17.209Z,1008.2
2019-04-10T01:53:18.336Z,1008.1
2019-04-10T01:54:19.754Z,1008.1
2019-04-10T01:55:25.802Z,1008.2
2019-04-10T01:56:30.205Z,1008.2
2019-04-10T01:57:24.070Z,1008.2
2019-04-10T01:58:25.616Z,1008.2
2019-04-10T01:59:27.010Z,1008.2
2019-04-10T02:00:28.407Z,1008.1
2019-04-10T02:01:29.992Z,1008.1
2019-04-10T02:02:31.647Z,1008.2
2019-04-10T02:03:32.827Z,1008.1
2019-04-10T02:04:35.154Z,1008.2
2019-04-10T02:05:36.586Z,1008.2
2019-04-10T02:06:37.708Z,1008.2
2019-04-10T02:07:38.424Z,1008.1
2019-04-10T02:08:40.309Z,1008.2
2019-04-10T02:09:41.480Z,1008.1
2019-04-10T02:10:42.747Z,1008.2
2019-04-10T02:11:44.338Z,1008.1
2019-04-10T02:12:45.730Z,1008.1
2019-04-10T02:13:47.671Z,1008.2
2019-04-10T02:14:48.838Z,1008.2
2019-04-10T02:15:50.262Z,1008.2
2019-04-10T02:16:51.552Z,1008.2
2019-04-10T02:17:53.011Z,1008.1
2019-04-10T02:18:54.378Z,1008.2
2019-04-10T02:19:56.719Z,1008.2
2019-04-10T02:20:57.438Z,1008.1
2019-04-10T02:21:58.950Z,1008.2
2019-04-10T02:23:00.358Z,1008.2
2019-04-10T02:24:02.897Z,1008.1
2019-04-10T02:25:03.490Z,1008.1
2019-04-10T02:26:05.358Z,1008.2
2019-04-10T02:27:06.276Z,1008.1
2019-04-10T02:28:08.916Z,1008.2
2019-04-10T02:29:09.247Z,1008.1
2019-04-10T02:30:12.167Z,1008.2
2019-04-10T02:31:12.550Z,1008.2
2019-04-10T02:32:14.577Z,1008.1
2019-04-10T02:33:15.925Z,1008.2
2019-04-10T02:34:17.225Z,1008.1
2019-04-10T02:35:19.708Z,1008.2
2019-04-10T02:36:19.475Z,1008.1
2019-04-10T02:37:20.559Z,1008.1
2019-04-10T02:38:40.080Z,1008.1
2019-04-10T02:39:29.682Z,1008.1
2019-04-10T02:40:25.569Z,1008.1
2019-04-10T02:41:27.809Z,1008.1
2019-04-10T02:42:27.618Z,1008.1
2019-04-10T02:43:29.258Z,1008.1
2019-04-10T02:44:30.714Z,1008.1
2019-04-10T02:45:32.567Z,1008.1
2019-04-10T02:46:33.533Z,1008.2
2019-04-10T02:47:34.919Z,1008.1
2019-04-10T02:48:36.310Z,1008.1
2019-04-10T02:49:38.555Z,1008.2
2019-04-10T02:50:40.605Z,1008.1
2019-04-10T02:51:41.270Z,1008.1
2019-04-10T02:52:43.216Z,1008.2
2019-04-10T02:53:43.812Z,1008.2
2019-04-10T02:54:46.007Z,1008.2
2019-04-10T02:55:47.512Z,1008.2
2019-04-10T02:56:49.462Z,1008.2
2019-04-10T02:57:49.902Z,1008.2
2019-04-10T02:58:51.599Z,1008.2
2019-04-10T02:59:53.658Z,1008.2
2019-04-10T03:00:54.859Z,1008.3
2019-04-10T03:01:56.111Z,1008.2
2019-04-10T03:02:57.738Z,1008.3
2019-04-10T03:03:59.109Z,1008.3
2019-04-10T03:04:59.480Z,1008.3
2019-04-10T03:06:00.849Z,1008.3
2019-04-10T03:07:04.070Z,1008.3
2019-04-10T03:08:04.863Z,1008.3
2019-04-10T03:09:25.165Z,1008.3
2019-04-10T03:10:17.508Z,1008.4
2019-04-10T03:11:11.538Z,1008.3
2019-04-10T03:12:10.378Z,1008.3
2019-04-10T03:13:11.692Z,1008.3
2019-04-10T03:14:12.629Z,1008.3
2019-04-10T03:15:14.906Z,1008.4
2019-04-10T03:16:15.925Z,1008.4
2019-04-10T03:17:17.678Z,1008.3
2019-04-10T03:18:18.832Z,1008.4
2019-04-10T03:19:19.618Z,1008.4
2019-04-10T03:20:21.008Z,1008.3
2019-04-10T03:21:22.841Z,1008.4
2019-04-10T03:22:24.976Z,1008.4
2019-04-10T03:23:25.585Z,1008.4
2019-04-10T03:24:27.469Z,1008.4
2019-04-10T03:25:28.878Z,1008.3
2019-04-10T03:26:29.897Z,1008.3
2019-04-10T03:27:31.343Z,1008.4
2019-04-10T03:28:33.451Z,1008.4
2019-04-10T03:29:34.228Z,1008.3
2019-04-10T03:30:36.920Z,1008.3
2019-04-10T03:31:38.921Z,1008.3
2019-04-10T03:32:41.719Z,1008.4
2019-04-10T03:33:44.190Z,1008.3
2019-04-10T03:34:43.251Z,1008.4
2019-04-10T03:35:43.089Z,1008.4
2019-04-10T03:36:45.414Z,1008.3
2019-04-10T03:37:46.636Z,1008.3
2019-04-10T03:38:55.400Z,1008.4
2019-04-10T03:39:48.929Z,1008.3
2019-04-10T03:40:50.073Z,1008.3
2019-04-10T03:41:52.540Z,1008.4
2019-04-10T03:42:53.023Z,1008.4
2019-04-10T03:43:54.403Z,1008.4
2019-04-10T03:44:56.895Z,1008.4
2019-04-10T03:45:57.189Z,1008.4
2019-04-10T03:46:58.775Z,1008.5
2019-04-10T03:48:00.112Z,1008.4
2019-04-10T03:49:01.507Z,1008.5
2019-04-10T03:50:03.036Z,1008.4
2019-04-10T03:51:04.431Z,1008.5
2019-04-10T03:52:05.835Z,1008.4
2019-04-10T03:53:07.571Z,1008.4
2019-04-10T03:54:09.075Z,1008.5
2019-04-10T03:55:10.499Z,1008.4
2019-04-10T03:56:11.735Z,1008.5
2019-04-10T03:57:13.984Z,1008.5
2019-04-10T03:58:15.430Z,1008.6
2019-04-10T03:59:16.017Z,1008.6
2019-04-10T04:00:18.120Z,1008.5
2019-04-10T04:01:18.878Z,1008.5
2019-04-10T04:02:20.277Z,1008.6
2019-04-10T04:03:21.966Z,1008.5
2019-04-10T04:04:23.763Z,1008.5
2019-04-10T04:05:24.846Z,1008.5
2019-04-10T04:06:27.845Z,1008.5
2019-04-10T04:07:29.131Z,1008.5
2019-04-10T04:08:31.893Z,1008.4
2019-04-10T04:09:32.474Z,1008.5
2019-04-10T04:10:34.949Z,1008.5
2019-04-10T04:11:35.338Z,1008.5
2019-04-10T04:12:37.028Z,1008.6
2019-04-10T04:13:38.214Z,1008.5
2019-04-10T04:14:39.614Z,1008.6
2019-04-10T04:15:42.132Z,1008.6
2019-04-10T04:16:43.612Z,1008.5
2019-04-10T04:17:44.418Z,1008.6
2019-04-10T04:18:45.649Z,1008.6
2019-04-10T04:19:47.059Z,1008.6
2019-04-10T04:20:48.458Z,1008.6
2019-04-10T04:21:50.249Z,1008.6
2019-04-10T04:22:51.505Z,1008.6
2019-04-10T04:23:53.262Z,1008.7
2019-04-10T04:24:54.390Z,1008.6
2019-04-10T04:25:56.849Z,1008.6
2019-04-10T04:26:57.374Z,1008.6
2019-04-10T04:27:58.627Z,1008.6
2019-04-10T04:29:00.227Z,1008.6
2019-04-10T04:30:01.624Z,1008.6
2019-04-10T04:31:03.105Z,1008.7
2019-04-10T04:32:04.822Z,1008.6
2019-04-10T04:33:06.666Z,1008.6
2019-04-10T04:34:07.188Z,1008.6
2019-04-10T04:35:09.070Z,1008.7
2019-04-10T04:36:10.334Z,1008.6
2019-04-10T04:37:12.369Z,1008.7
2019-04-10T04:38:13.445Z,1008.7
2019-04-10T04:39:21.773Z,1008.7
2019-04-10T04:40:15.658Z,1008.6
2019-04-10T04:41:17.421Z,1008.7
2019-04-10T04:42:18.586Z,1008.7
2019-04-10T04:43:21.650Z,1008.7
2019-04-10T04:44:22.192Z,1008.7
2019-04-10T04:45:23.520Z,1008.8
2019-04-10T04:46:24.305Z,1008.7
2019-04-10T04:47:26.536Z,1008.7
2019-04-10T04:48:28.338Z,1008.8
2019-04-10T04:49:28.757Z,1008.7
2019-04-10T04:50:31.251Z,1008.7
2019-04-10T04:51:31.633Z,1008.7
2019-04-10T04:52:33.031Z,1008.8
2019-04-10T04:53:34.470Z,1008.8
2019-04-10T04:54:35.956Z,1008.8
2019-04-10T04:55:37.431Z,1008.8
2019-04-10T04:56:38.710Z,1008.8
2019-04-10T04:57:41.081Z,1008.8
2019-04-10T04:58:41.639Z,1008.9
2019-04-10T04:59:43.036Z,1008.9
2019-04-10T05:00:44.602Z,1008.9
2019-04-10T05:01:46.852Z,1008.9
2019-04-10T05:02:47.359Z,1008.9
2019-04-10T05:03:48.920Z,1009.0
2019-04-10T05:04:51.414Z,1009.0
2019-04-10T05:05:51.939Z,1009.0
2019-04-10T05:06:53.254Z,1009.0
2019-04-10T05:07:59.615Z,1009.1
2019-04-10T05:08:56.848Z,1009.0
2019-04-10T05:09:59.129Z,1009.1
2019-04-10T05:11:00.034Z,1009.1
2019-04-10T05:12:00.669Z,1009.1
2019-04-10T05:13:01.979Z,1009.2
2019-04-10T05:14:03.185Z,1009.1
2019-04-10T05:15:04.767Z,1009.3
2019-04-10T05:16:06.219Z,1009.3
2019-04-10T05:17:08.021Z,1009.3
2019-04-10T05:18:09.090Z,1009.3
2019-04-10T05:19:10.493Z,1009.3
2019-04-10T05:20:11.969Z,1009.3
2019-04-10T05:21:13.368Z,1009.4
2019-04-10T05:22:14.877Z,1009.3
2019-04-10T05:23:16.277Z,1009.4
2019-04-10T05:24:17.845Z,1009.3
2019-04-10T05:25:19.175Z,1009.4
2019-04-10T05:26:20.801Z,1009.3
2019-04-10T05:27:22.552Z,1009.4
2019-04-10T05:28:24.215Z,1009.4
2019-04-10T05:29:25.062Z,1009.4
2019-04-10T05:30:27.202Z,1009.4
2019-04-10T05:31:27.795Z,1009.4
2019-04-10T05:32:29.263Z,1009.5
2019-04-10T05:33:31.016Z,1009.4
2019-04-10T05:34:32.254Z,1009.4
2019-04-10T05:35:33.659Z,1009.5
2019-04-10T05:36:35.252Z,1009.4
2019-04-10T05:37:36.688Z,1009.5
2019-04-10T05:38:38.094Z,1009.5
2019-04-10T05:39:45.725Z,1009.5
2019-04-10T05:40:42.128Z,1009.6
2019-04-10T05:41:42.319Z,1009.6
2019-04-10T05:42:44.935Z,1009.6
2019-04-10T05:43:45.226Z,1009.6
2019-04-10T05:44:47.809Z,1009.5
2019-04-10T05:45:48.624Z,1009.6
2019-04-10T05:46:49.626Z,1009.6
2019-04-10T05:47:51.032Z,1009.6
2019-04-10T05:48:52.630Z,1009.7
2019-04-10T05:49:53.876Z,1009.7
2019-04-10T05:51:02.230Z,1009.8
2019-04-10T05:51:57.649Z,1009.8
2019-04-10T05:52:58.273Z,1009.8
2019-04-10T05:54:00.091Z,1009.8
2019-04-10T05:55:02.244Z,1009.8
2019-04-10T05:56:03.508Z,1009.8
2019-04-10T05:57:04.146Z,1009.8
2019-04-10T05:58:05.397Z,1009.9
2019-04-10T05:59:08.540Z,1009.7
2019-04-10T06:00:08.475Z,1009.8
2019-04-10T06:01:09.722Z,1009.9
2019-04-10T06:02:11.113Z,1009.8
2019-04-10T06:03:12.676Z,1009.8
2019-04-10T06:04:14.078Z,1009.9
2019-04-10T06:05:16.183Z,1009.9
2019-04-10T06:06:16.915Z,1009.8
2019-04-10T06:07:19.168Z,1009.9
2019-04-10T06:08:20.268Z,1009.8
2019-04-10T06:09:22.741Z,1009.8
2019-04-10T06:10:24.690Z,1009.9
2019-04-10T06:11:24.945Z,1009.9
2019-04-10T06:12:26.488Z,1010.0
2019-04-10T06:13:27.896Z,1010.0
2019-04-10T06:14:30.392Z,1010.0
2019-04-10T06:15:30.768Z,1010.0
2019-04-10T06:16:32.342Z,1010.0
2019-04-10T06:17:34.337Z,1010.1
2019-04-10T06:18:35.461Z,1010.1
2019-04-10T06:19:36.555Z,1010.2
2019-04-10T06:20:38.088Z,1010.2
2019-04-10T06:21:39.729Z,1010.2
2019-04-10T06:22:43.836Z,1010.2
2019-04-10T06:23:43.509Z,1010.3
2019-04-10T06:24:44.892Z,1010.3
2019-04-10T06:25:47.810Z,1010.3
2019-04-10T06:26:48.217Z,1010.2
2019-04-10T06:27:50.538Z,1010.3
2019-04-10T06:28:51.223Z,1010.4
2019-04-10T06:29:53.141Z,1010.4
2019-04-10T06:30:54.503Z,1010.4
2019-04-10T06:31:56.596Z,1010.5
2019-04-10T06:32:57.880Z,1010.5
2019-04-10T06:33:58.468Z,1010.5
2019-04-10T06:34:59.794Z,1010.6
2019-04-10T06:36:01.195Z,1010.6
2019-04-10T06:37:03.931Z,1010.6
2019-04-10T06:38:04.397Z,1010.6
2019-04-10T06:39:06.644Z,1010.6
2019-04-10T06:40:14.267Z,1010.6
2019-04-10T06:41:10.438Z,1010.6
2019-04-10T06:42:10.703Z,1010.6
2019-04-10T06:43:12.784Z,1010.7
2019-04-10T06:44:14.025Z,1010.7
2019-04-10T06:45:15.488Z,1010.7
2019-04-10T06:46:16.716Z,1010.7
2019-04-10T06:47:18.135Z,1010.7
2019-04-10T06:48:19.311Z,1010.7
2019-04-10T06:49:20.860Z,1010.7
2019-04-10T06:50:23.116Z,1010.7
2019-04-10T06:51:23.737Z,1010.8
2019-04-10T06:52:25.142Z,1010.8
2019-04-10T06:53:26.889Z,1010.7
2019-04-10T06:54:28.810Z,1010.8
2019-04-10T06:55:30.168Z,1010.8
2019-04-10T06:56:31.351Z,1010.9
2019-04-10T06:57:44.515Z,1010.8
2019-04-10T06:58:34.158Z,1010.9
2019-04-10T06:59:35.670Z,1010.8
2019-04-10T07:00:37.079Z,1010.9
2019-04-10T07:01:44.435Z,1010.9
2019-04-10T07:02:40.129Z,1010.9
2019-04-10T07:03:52.782Z,1010.9
2019-04-10T07:04:48.488Z,1010.9
2019-04-10T07:05:59.662Z,1010.9
2019-04-10T07:06:55.926Z,1010.9
2019-04-10T07:07:51.991Z,1010.9
2019-04-10T07:08:50.873Z,1010.9
2019-04-10T07:09:52.365Z,1010.9
2019-04-10T07:10:58.030Z,1010.9
2019-04-10T07:11:56.811Z,1010.9
2019-04-10T07:12:55.368Z,1010.9
2019-04-10T07:13:57.088Z,1010.9
2019-04-10T07:14:58.266Z,1011.0
2019-04-10T07:15:59.915Z,1011.0
2019-04-10T07:17:05.004Z,1011.0
2019-04-10T07:18:01.739Z,1011.0
2019-04-10T07:19:05.592Z,1011.0
2019-04-10T07:20:05.255Z,1011.0
2019-04-10T07:21:06.429Z,1011.1
2019-04-10T07:22:11.950Z,1011.0
2019-04-10T07:23:08.798Z,1011.1
2019-04-10T07:24:12.155Z,1011.1
2019-04-10T07:25:12.868Z,1011.1
2019-04-10T07:26:18.440Z,1011.1
2019-04-10T07:27:14.566Z,1011.1
2019-04-10T07:28:15.971Z,1011.0
2019-04-10T07:29:21.045Z,1011.0
2019-04-10T07:30:19.447Z,1011.0
2019-04-10T07:31:21.377Z,1011.1
2019-04-10T07:32:24.106Z,1011.1
2019-04-10T07:33:24.525Z,1011.1
2019-04-10T07:34:26.917Z,1011.0
2019-04-10T07:35:28.251Z,1010.9
2019-04-10T07:36:28.501Z,1011.0
2019-04-10T07:37:29.174Z,1011.0
2019-04-10T07:38:30.872Z,1010.9
2019-04-10T07:39:33.512Z,1011.0
2019-04-10T07:40:35.957Z,1011.0
2019-04-10T07:41:35.489Z,1011.0
2019-04-10T07:42:39.731Z,1011.0
2019-04-10T07:43:38.545Z,1011.0
2019-04-10T07:44:39.201Z,1011.1
2019-04-10T07:45:40.598Z,1011.0
2019-04-10T07:46:42.379Z,1011.1
2019-04-10T07:47:44.098Z,1011.2
2019-04-10T07:48:45.492Z,1011.3
2019-04-10T07:49:46.457Z,1011.5
2019-04-10T07:50:48.491Z,1011.4
2019-04-10T07:51:49.246Z,1011.4
2019-04-10T07:52:52.003Z,1011.3
2019-04-10T07:53:52.356Z,1011.3
2019-04-10T07:54:54.468Z,1011.4
2019-04-10T07:56:01.400Z,1011.4
2019-04-10T07:56:56.543Z,1011.5
2019-04-10T07:57:57.953Z,1011.4
2019-04-10T07:59:00.570Z,1011.3
2019-04-10T08:00:00.998Z,1011.1
2019-04-10T08:01:02.414Z,1011.1
2019-04-10T08:02:05.956Z,1011.1
2019-04-10T08:03:06.279Z,1011.2
2019-04-10T08:04:06.614Z,1011.3
2019-04-10T08:05:08.666Z,1011.3
2019-04-10T08:06:11.041Z,1011.3
2019-04-10T08:07:15.404Z,1011.2
2019-04-10T08:08:12.857Z,1011.2
2019-04-10T08:09:14.739Z,1011.6
2019-04-10T08:10:15.884Z,1011.7
2019-04-10T08:11:17.597Z,1011.6
2019-04-10T08:12:19.016Z,1011.6
2019-04-10T08:13:20.436Z,1011.7
2019-04-10T08:14:21.785Z,1011.5
2019-04-10T08:15:23.140Z,1011.5
2019-04-10T08:16:25.254Z,1011.6
2019-04-10T08:17:26.251Z,1011.3
2019-04-10T08:18:27.572Z,1011.3
2019-04-10T08:19:29.426Z,1011.3
2019-04-10T08:20:30.648Z,1011.5
2019-04-10T08:21:31.762Z,1011.5
2019-04-10T08:22:33.188Z,1011.5
2019-04-10T08:23:35.731Z,1011.6
2019-04-10T08:24:36.446Z,1011.6
2019-04-10T08:25:38.715Z,1011.7
2019-04-10T08:26:39.064Z,1011.8
2019-04-10T08:27:41.686Z,1011.7
2019-04-10T08:28:41.943Z,1011.6
2019-04-10T08:29:43.454Z,1011.7
2019-04-10T08:30:45.010Z,1011.8
2019-04-10T08:31:46.341Z,1011.9
2019-04-10T08:32:56.052Z,1012.0
2019-04-10T08:33:49.217Z,1012.0
2019-04-10T08:34:51.238Z,1011.7
2019-04-10T08:35:51.996Z,1011.7
2019-04-10T08:36:55.053Z,1011.6
2019-04-10T08:37:54.911Z,1011.7
2019-04-10T08:38:56.998Z,1011.7
2019-04-10T08:39:58.924Z,1011.7
2019-04-10T08:40:59.230Z,1011.9
2019-04-10T08:42:00.742Z,1012.1
2019-04-10T08:43:02.165Z,1012.2
2019-04-10T08:44:04.357Z,1012.4
2019-04-10T08:45:05.198Z,1012.5
2019-04-10T08:46:06.741Z,1012.5
2019-04-10T08:47:08.879Z,1012.5
2019-04-10T08:48:10.040Z,1012.2
2019-04-10T08:49:12.158Z,1012.1
2019-04-10T08:50:13.818Z,1012.0
2019-04-10T08:51:14.923Z,1012.0
2019-04-10T08:52:16.543Z,1012.2
2019-04-10T08:53:18.027Z,1012.4
2019-04-10T08:54:18.658Z,1012.4
2019-04-10T08:55:20.067Z,1012.4
2019-04-10T08:56:22.532Z,1012.5
2019-04-10T08:57:22.962Z,1012.5
2019-04-10T08:58:24.954Z,1012.5
2019-04-10T08:59:25.755Z,1012.5
2019-04-10T09:00:27.285Z,1012.4
2019-04-10T09:01:29.240Z,1012.4
2019-04-10T09:02:30.404Z,1012.9
2019-04-10T09:03:31.609Z,1012.9
2019-04-10T09:04:33.569Z,1012.9
2019-04-10T09:05:35.398Z,1012.7
2019-04-10T09:06:35.926Z,1012.7
2019-04-10T09:07:38.071Z,1012.5
2019-04-10T09:08:39.172Z,1012.8
2019-04-10T09:09:40.247Z,1012.8
2019-04-10T09:10:42.762Z,1012.8
2019-04-10T09:11:43.096Z,1013.0
2019-04-10T09:12:45.113Z,1012.9
2019-04-10T09:13:46.462Z,1013.5
2019-04-10T09:14:47.627Z,1013.4
2019-04-10T09:15:49.894Z,1013.7
2019-04-10T09:16:51.047Z,1013.4
2019-04-10T09:17:51.836Z,1013.6
2019-04-10T09:18:53.819Z,1013.6
2019-04-10T09:19:54.788Z,1013.7
2019-04-10T09:20:57.182Z,1013.7
2019-04-10T09:21:57.817Z,1013.9
2019-04-10T09:23:15.517Z,1015.0
2019-04-10T09:24:00.832Z,1015.1
2019-04-10T09:25:02.843Z,1014.9
2019-04-10T09:26:03.820Z,1014.9
2019-04-10T09:27:05.145Z,1015.5
2019-04-10T09:28:06.626Z,1016.2
2019-04-10T09:29:08.047Z,1016.2
2019-04-10T09:30:10.792Z,1012.6
2019-04-10T09:31:11.126Z,1012.0
2019-04-10T09:32:12.673Z,1012.0
2019-04-10T09:33:21.214Z,1011.9
2019-04-10T09:34:15.813Z,1012.3
2019-04-10T09:35:16.923Z,1015.8
2019-04-10T09:36:19.678Z,1019.3
2019-04-10T09:37:19.963Z,1020.2
2019-04-10T09:38:21.369Z,1020.3
2019-04-10T09:39:23.324Z,1020.3
2019-04-10T09:40:24.484Z,1019.8
2019-04-10T09:41:25.909Z,1020.4
2019-04-10T09:42:27.761Z,1020.0
2019-04-10T09:43:29.584Z,1018.8
2019-04-10T09:44:30.107Z,1018.5
2019-04-10T09:45:31.772Z,1018.6
2019-04-10T09:46:33.204Z,1019.9
2019-04-10T09:47:34.786Z,1020.2
2019-04-10T09:48:36.008Z,1018.7
2019-04-10T09:49:42.063Z,1019.0
2019-04-10T09:50:39.580Z,1018.4
2019-04-10T09:51:40.386Z,1019.3
2019-04-10T09:52:41.869Z,1020.0
2019-04-10T09:53:43.349Z,1020.5
2019-04-10T09:54:44.591Z,1020.6
2019-04-10T09:55:46.871Z,1020.4
2019-04-10T09:56:47.467Z,1020.5
2019-04-10T09:57:49.726Z,1020.6
2019-04-10T09:58:50.347Z,1022.1
2019-04-10T09:59:52.451Z,1022.5
2019-04-10T10:00:54.373Z,1022.6
2019-04-10T10:01:55.045Z,1023.0
2019-04-10T10:02:56.077Z,1021.6
2019-04-10T10:03:57.553Z,1017.9
2019-04-10T10:04:58.957Z,1019.1
2019-04-10T10:06:01.668Z,1019.1
2019-04-10T10:07:01.970Z,1018.8
2019-04-10T10:08:04.269Z,1017.1
2019-04-10T10:09:04.616Z,1017.8
2019-04-10T10:10:06.580Z,1020.5
2019-04-10T10:11:07.565Z,1021.3
2019-04-10T10:12:09.557Z,1021.7
2019-04-10T10:13:10.515Z,1020.2
2019-04-10T10:14:12.526Z,1020.4
2019-04-10T10:15:13.491Z,1017.0
2019-04-10T10:16:14.849Z,1014.6
2019-04-10T10:17:16.793Z,1014.0
2019-04-10T10:18:17.717Z,1015.0
2019-04-10T10:19:19.123Z,1018.3
2019-04-10T10:20:21.711Z,1018.6
2019-04-10T10:21:22.039Z,1014.9
2019-04-10T10:22:23.450Z,1012.1
2019-04-10T10:23:25.495Z,1011.6
2019-04-10T10:24:26.740Z,1012.8
2019-04-10T10:25:27.732Z,1014.9
2019-04-10T10:26:30.138Z,1014.9
2019-04-10T10:27:30.683Z,1014.5
2019-04-10T10:28:33.183Z,1014.4
2019-04-10T10:29:33.605Z,1014.3
2019-04-10T10:30:35.564Z,1017.0
2019-04-10T10:31:36.446Z,1016.2
2019-04-10T10:32:37.858Z,1016.8
2019-04-10T10:33:39.584Z,1016.9
2019-04-10T10:34:40.801Z,1016.9
2019-04-10T10:35:43.188Z,1018.2
2019-04-10T10:36:46.225Z,1012.0
2019-04-10T10:37:44.946Z,1017.4
2019-04-10T10:38:47.430Z,1018.0
2019-04-10T10:39:47.903Z,1017.9
2019-04-10T10:40:49.307Z,1012.0
2019-04-10T10:41:51.067Z,1014.7
2019-04-10T10:42:52.234Z,1017.8
2019-04-10T10:43:53.730Z,1017.7
2019-04-10T10:44:55.144Z,1017.4
2019-04-10T10:45:56.613Z,1017.4
2019-04-10T10:46:58.032Z,1017.3
2019-04-10T10:47:59.426Z,1016.8
2019-04-10T10:49:02.186Z,1016.0
2019-04-10T10:50:02.304Z,1015.9
2019-04-10T10:51:04.510Z,1015.1
2019-04-10T10:52:05.255Z,1015.0
2019-04-10T10:53:06.666Z,1013.2
2019-04-10T10:54:08.570Z,1012.0
2019-04-10T10:55:09.795Z,1011.6
2019-04-10T10:56:11.918Z,1011.8
2019-04-10T10:57:13.099Z,1011.7
2019-04-10T10:58:13.897Z,1011.6
2019-04-10T10:59:15.501Z,1011.8
2019-04-10T11:00:17.074Z,1012.1
2019-04-10T11:01:18.283Z,1012.1
2019-04-10T11:02:19.963Z,1011.9
2019-04-10T11:03:22.352Z,1011.9
2019-04-10T11:04:23.250Z,1011.6
2019-04-10T11:05:25.254Z,1011.4
2019-04-10T11:06:26.772Z,1011.5
2019-04-10T11:07:27.059Z,1011.5
2019-04-10T11:08:29.356Z,1011.5
2019-04-10T11:09:30.205Z,1011.7
2019-04-10T11:10:31.472Z,1011.8
2019-04-10T11:11:32.769Z,1012.0
2019-04-10T11:12:34.227Z,1012.2
2019-04-10T11:13:36.986Z,1012.0
2019-04-10T11:14:37.261Z,1012.2
2019-04-10T11:15:42.419Z,1012.1
2019-04-10T11:16:41.051Z,1011.6
2019-04-10T11:17:42.154Z,1011.5
2019-04-10T11:18:43.277Z,1012.0
2019-04-10T11:19:45.575Z,1011.5
2019-04-10T11:20:45.996Z,1011.9
2019-04-10T11:21:47.490Z,1011.9
2019-04-10T11:22:49.608Z,1011.6
2019-04-10T11:23:50.893Z,1011.4
2019-04-10T11:24:52.282Z,1011.4
2019-04-10T11:25:55.144Z,1011.5
2019-04-10T11:26:54.856Z,1011.8
2019-04-10T11:27:56.461Z,1011.6
2019-04-10T11:28:58.086Z,1011.5
2019-04-10T11:30:00.815Z,1011.6
2019-04-10T11:31:01.385Z,1011.7
2019-04-10T11:32:01.998Z,1011.7
2019-04-10T11:33:03.564Z,1011.5
2019-04-10T11:34:07.588Z,1011.6
2019-04-10T11:35:06.739Z,1011.5
2019-04-10T11:36:07.844Z,1011.4
2019-04-10T11:37:23.326Z,1011.3
2019-04-10T11:38:10.944Z,1011.3
2019-04-10T11:39:19.335Z,1011.2
2019-04-10T11:40:16.337Z,1011.3
2019-04-10T11:41:15.104Z,1011.2
2019-04-10T11:42:16.366Z,1011.2
2019-04-10T11:43:19.043Z,1011.1
2019-04-10T11:44:20.268Z,1011.2
2019-04-10T11:45:22.811Z,1011.1
2019-04-10T11:46:22.729Z,1011.1
2019-04-10T11:47:24.852Z,1011.1
2019-04-10T11:48:25.533Z,1011.2
2019-04-10T11:49:27.682Z,1011.5
2019-04-10T11:50:29.772Z,1011.3
2019-04-10T11:51:30.624Z,1011.2
2019-04-10T11:52:36.343Z,1011.2
2019-04-10T11:53:37.246Z,1011.1
2019-04-10T11:54:37.241Z,1011.1
2019-04-10T11:56:37.971Z,1011.1
2019-04-10T11:57:38.492Z,1011.2
2019-04-10T11:58:48.642Z,1011.1
2019-04-10T11:59:43.945Z,1011.1
2019-04-10T12:00:50.465Z,1011.0
2019-04-10T12:01:46.237Z,1010.9
2019-04-10T12:02:49.297Z,1011.1
2019-04-10T12:03:50.579Z,1011.0
2019-04-10T12:05:51.821Z,1011.0
2019-04-10T12:06:54.029Z,1011.0
2019-04-10T12:08:15.964Z,1011.1
2019-04-10T12:11:59.396Z,1011.1
2019-04-10T12:13:00.550Z,1010.9
2019-04-10T12:14:02.968Z,1011.1
2019-04-10T12:15:03.976Z,1011.1
2019-04-10T12:16:05.123Z,1011.2
2019-04-10T12:17:06.440Z,1011.1
2019-04-10T12:18:08.655Z,1011.1
2019-04-10T12:19:09.189Z,1011.1
2019-04-10T12:20:11.179Z,1011.1
2019-04-10T12:21:12.014Z,1011.1
2019-04-10T12:22:13.663Z,1011.1
2019-04-10T12:23:14.786Z,1011.0
2019-04-10T12:24:16.392Z,1011.1
2019-04-10T12:25:18.675Z,1011.0
2019-04-10T12:26:19.897Z,1011.1
2019-04-10T12:27:20.922Z,1011.1
2019-04-10T12:28:22.189Z,1011.0
2019-04-10T12:29:24.585Z,1011.0
2019-04-10T12:30:24.978Z,1011.0
2019-04-10T12:31:26.384Z,1011.1
2019-04-10T12:32:28.507Z,1011.0
2019-04-10T12:33:29.680Z,1010.9
2019-04-10T12:34:30.599Z,1011.1
2019-04-10T12:35:32.181Z,1011.0
2019-04-10T12:36:34.307Z,1011.0
2019-04-10T12:37:35.021Z,1011.0
2019-04-10T12:38:36.502Z,1011.0
2019-04-10T12:39:39.087Z,1011.1
2019-04-10T12:40:40.433Z,1011.1
2019-04-10T12:41:41.583Z,1011.1
2019-04-10T12:42:42.264Z,1011.1
2019-04-10T12:43:43.668Z,1011.0
2019-04-10T12:44:45.147Z,1011.0
2019-04-10T12:45:46.614Z,1011.0
2019-04-10T12:46:49.128Z,1011.0
2019-04-10T12:47:50.222Z,1011.0
2019-04-10T12:48:50.923Z,1010.9
2019-04-10T12:49:52.317Z,1011.0
2019-04-10T12:50:53.789Z,1011.1
2019-04-10T12:51:56.228Z,1011.2